Time;durP1;ratioP1;P1;durP2;ratioP2;P2;SDS_P1;SDS_P2;PMS_P1;PMS_P2;Temp;Humidity;BMP_temperature;BMP_pressure;BME280_temperature;BME280_humidity;BME280_pressure;Samples;Min_cycle;Max_cycle;Signal;HPM_P1;HPM_P2
2022/06/21 00:00:50;;;;;;;19.80;4.93;;;16.10;99.90;;;;;;5099168;28;20013;-67
2022/06/21 00:03:19;;;;;;;16.23;4.60;;;16.00;99.90;;;;;;5097308;28;20032;-68
2022/06/21 00:05:48;;;;;;;19.35;4.40;;;15.90;99.90;;;;;;5096737;28;20464;-68
2022/06/21 00:08:19;;;;;;;16.48;4.47;;;16.00;99.90;;;;;;5098972;28;20032;-68
2022/06/21 00:10:46;;;;;;;11.38;4.15;;;16.20;99.90;;;;;;5099053;28;20036;-68
2022/06/21 00:13:18;;;;;;;19.88;4.47;;;16.10;99.90;;;;;;5081051;28;20016;-68
2022/06/21 00:15:45;;;;;;;17.75;4.80;;;16.00;99.90;;;;;;5099128;28;20044;-68
2022/06/21 00:18:19;;;;;;;14.18;4.60;;;16.10;99.90;;;;;;5098920;28;20028;-69
2022/06/21 00:20:45;;;;;;;17.35;4.57;;;16.20;99.90;;;;;;5099047;28;20119;-67
2022/06/21 00:23:18;;;;;;;18.67;5.28;;;16.20;99.90;;;;;;5099136;28;20062;-68
2022/06/21 00:25:46;;;;;;;18.90;4.30;;;16.00;99.90;;;;;;5098779;28;20028;-68
2022/06/21 00:28:13;;;;;;;17.23;4.63;;;16.10;99.90;;;;;;5098938;28;20020;-69
2022/06/21 00:30:39;;;;;;;14.85;5.00;;;15.90;99.90;;;;;;5099133;28;20028;-67
2022/06/21 00:33:12;;;;;;;16.50;4.03;;;15.70;99.90;;;;;;5098607;28;20062;-68
2022/06/21 00:35:41;;;;;;;13.90;5.10;;;15.80;99.90;;;;;;5095040;28;20054;-68
2022/06/21 00:38:18;;;;;;;14.02;4.30;;;15.90;99.90;;;;;;5095365;28;20051;-68
2022/06/21 00:40:44;;;;;;;15.80;4.05;;;15.70;99.90;;;;;;5095471;28;20044;-68
2022/06/21 00:43:18;;;;;;;17.45;4.13;;;15.60;99.90;;;;;;5084933;28;20020;-68
2022/06/21 00:45:47;;;;;;;18.88;4.45;;;15.40;99.90;;;;;;5095147;28;20032;-68
2022/06/21 00:48:29;;;;;;;20.75;4.70;;;15.30;99.90;;;;;;5092231;28;20046;-68
2022/06/21 00:51:00;;;;;;;20.95;5.55;;;15.30;99.90;;;;;;5070253;28;20029;-67
2022/06/21 00:53:35;;;;;;;11.35;4.28;;;15.40;99.90;;;;;;5088887;28;20047;-69
2022/06/21 00:56:33;;;;;;;13.38;4.45;;;15.60;99.90;;;;;;5095531;28;20024;-68
2022/06/21 00:59:34;;;;;;;17.73;5.00;;;15.50;99.90;;;;;;5094596;28;20396;-68
2022/06/21 01:02:05;;;;;;;15.07;5.07;;;15.30;99.90;;;;;;5094764;28;20074;-69
2022/06/21 01:04:47;;;;;;;13.90;4.63;;;15.30;99.90;;;;;;5090006;28;20028;-68
2022/06/21 01:07:14;;;;;;;13.52;4.78;;;15.10;99.90;;;;;;5094971;28;20028;-67
2022/06/21 01:10:00;;;;;;;16.90;4.60;;;14.90;99.90;;;;;;5094633;28;20106;-68
2022/06/21 01:12:41;;;;;;;15.60;4.65;;;15.00;99.90;;;;;;5095097;28;20044;-68
2022/06/21 01:15:15;;;;;;;17.23;5.05;;;15.10;99.90;;;;;;5095333;28;20097;-68
2022/06/21 01:17:41;;;;;;;21.15;5.30;;;15.20;99.90;;;;;;5094796;28;20510;-69
2022/06/21 01:20:14;;;;;;;13.82;4.97;;;15.20;99.90;;;;;;5095056;28;20040;-68
2022/06/21 01:22:56;;;;;;;12.85;5.78;;;15.30;99.90;;;;;;5094483;28;20036;-68
2022/06/21 01:25:49;;;;;;;14.10;4.85;;;15.20;99.90;;;;;;5095057;28;20020;-68
2022/06/21 01:28:15;;;;;;;15.55;5.07;;;15.20;99.90;;;;;;5067614;28;20122;-68
2022/06/21 01:30:49;;;;;;;22.60;6.00;;;15.20;99.90;;;;;;5094721;28;20024;-68
2022/06/21 01:33:17;;;;;;;15.75;4.60;;;15.20;99.90;;;;;;5094533;28;20466;-68
2022/06/21 01:35:49;;;;;;;21.27;5.78;;;15.30;99.90;;;;;;5094821;28;20046;-68
2022/06/21 01:38:20;;;;;;;16.70;5.60;;;15.30;99.90;;;;;;5075874;28;20169;-67
2022/06/21 01:40:52;;;;;;;17.73;5.18;;;15.30;99.90;;;;;;5094654;28;20059;-68
2022/06/21 01:43:24;;;;;;;15.85;4.93;;;15.10;99.90;;;;;;5094404;28;20102;-68
2022/06/21 01:46:00;;;;;;;17.08;4.82;;;15.20;99.90;;;;;;5093016;28;20024;-68
2022/06/21 01:48:32;;;;;;;17.48;5.38;;;15.10;99.90;;;;;;5092970;28;20028;-68
2022/06/21 01:51:06;;;;;;;13.52;5.40;;;15.00;99.90;;;;;;5086733;28;20496;-68
2022/06/21 01:53:34;;;;;;;15.45;5.00;;;15.10;99.90;;;;;;5088521;28;20020;-68
2022/06/21 01:56:05;;;;;;;19.08;6.07;;;15.00;99.90;;;;;;5094274;28;20557;-68
2022/06/21 01:58:35;;;;;;;15.40;5.82;;;15.00;99.90;;;;;;5093913;28;20472;-68
2022/06/21 02:01:10;;;;;;;16.30;5.10;;;14.80;99.90;;;;;;5066546;28;20477;-68
2022/06/21 02:03:38;;;;;;;16.63;5.90;;;14.60;99.90;;;;;;5089415;28;20035;-68
2022/06/21 02:06:11;;;;;;;18.73;6.00;;;14.60;99.90;;;;;;5093763;28;20024;-68
2022/06/21 02:08:44;;;;;;;21.08;5.68;;;14.80;99.90;;;;;;5075644;28;20038;-68
2022/06/21 02:11:20;;;;;;;14.57;5.88;;;14.80;99.90;;;;;;5075256;28;20040;-68
2022/06/21 02:16:42;;;;;;;17.67;6.40;;;14.70;99.90;;;;;;5070481;28;20044;-68
2022/06/21 02:19:22;;;;;;;17.75;6.25;;;14.60;99.90;;;;;;5085831;28;20382;-68
2022/06/21 02:21:49;;;;;;;14.02;6.97;;;14.60;99.90;;;;;;5089338;28;20516;-68
2022/06/21 02:24:15;;;;;;;24.15;7.38;;;14.60;99.90;;;;;;5085491;28;20103;-68
2022/06/21 02:26:42;;;;;;;17.08;6.47;;;14.50;99.90;;;;;;5087654;28;20051;-68
2022/06/21 02:29:12;;;;;;;16.85;6.40;;;14.60;99.90;;;;;;5079167;28;20016;-68
2022/06/21 02:31:39;;;;;;;13.73;6.35;;;14.70;99.90;;;;;;5093574;28;20488;-68
2022/06/21 02:34:11;;;;;;;18.77;6.10;;;14.70;99.90;;;;;;5093544;28;20074;-68
2022/06/21 02:36:50;;;;;;;18.38;6.10;;;14.70;99.90;;;;;;5093509;28;20111;-68
2022/06/21 02:39:19;;;;;;;23.38;6.53;;;14.60;99.90;;;;;;5093173;28;20036;-68
2022/06/21 02:42:10;;;;;;;19.65;6.53;;;14.70;99.90;;;;;;5093404;28;20349;-68
2022/06/21 02:44:44;;;;;;;18.50;6.68;;;14.90;99.90;;;;;;5086238;28;20028;-68
2022/06/21 02:47:17;;;;;;;27.10;6.80;;;14.90;99.90;;;;;;5074851;28;20552;-68
2022/06/21 02:49:51;;;;;;;21.65;6.53;;;14.90;99.90;;;;;;5048538;28;20039;-68
2022/06/21 02:52:26;;;;;;;28.00;6.47;;;14.70;99.90;;;;;;5093302;28;20426;-68
2022/06/21 02:55:17;;;;;;;14.15;6.22;;;14.60;99.90;;;;;;5093073;28;20034;-68
2022/06/21 02:58:21;;;;;;;18.33;6.72;;;14.70;99.90;;;;;;5092330;28;20024;-68
2022/06/21 03:00:50;;;;;;;19.73;7.47;;;14.60;99.90;;;;;;5092895;28;20063;-68
2022/06/21 03:03:19;;;;;;;16.75;6.95;;;14.40;99.90;;;;;;5091467;28;20161;-68
2022/06/21 03:05:50;;;;;;;14.05;5.75;;;14.30;99.90;;;;;;5085561;28;20031;-68
2022/06/21 03:08:17;;;;;;;18.88;6.25;;;14.30;99.90;;;;;;5092705;28;20047;-68
2022/06/21 03:10:47;;;;;;;15.13;5.72;;;14.10;99.90;;;;;;5092727;28;20028;-68
2022/06/21 03:13:21;;;;;;;20.60;6.50;;;14.10;99.90;;;;;;5092982;28;20055;-68
2022/06/21 03:15:57;;;;;;;15.88;5.72;;;14.30;99.90;;;;;;5092860;28;20052;-68
2022/06/21 03:18:25;;;;;;;20.67;6.47;;;14.40;99.90;;;;;;5088586;28;20032;-68
2022/06/21 03:20:53;;;;;;;16.00;6.82;;;14.20;99.90;;;;;;5082957;28;20034;-68
2022/06/21 03:23:20;;;;;;;18.73;6.05;;;14.10;99.90;;;;;;5092965;28;20495;-67
2022/06/21 03:25:52;;;;;;;25.27;6.72;;;13.90;99.90;;;;;;5092882;28;20028;-68
2022/06/21 03:28:33;;;;;;;11.75;5.55;;;14.10;99.90;;;;;;5092605;28;20043;-69
2022/06/21 03:31:20;;;;;;;15.93;6.20;;;14.00;99.90;;;;;;5092628;28;20038;-69
2022/06/21 03:33:51;;;;;;;19.10;6.60;;;14.00;99.90;;;;;;5092360;28;20099;-68
2022/06/21 03:36:21;;;;;;;12.98;6.63;;;14.30;99.90;;;;;;5092866;28;20031;-68
2022/06/21 03:38:51;;;;;;;16.60;6.70;;;14.60;99.90;;;;;;5092454;28;20013;-68
2022/06/21 03:44:27;;;;;;;18.10;6.25;;;14.40;99.90;;;;;;5092598;28;20138;-68
2022/06/21 03:47:00;;;;;;;16.10;6.10;;;14.30;99.90;;;;;;5082242;28;20055;-69
2022/06/21 03:50:08;;;;;;;12.52;6.05;;;14.20;99.90;;;;;;5092331;28;20032;-68
2022/06/21 03:53:03;;;;;;;22.60;6.57;;;14.20;99.90;;;;;;5092544;28;20528;-69
2022/06/21 03:55:41;;;;;;;16.65;5.68;;;14.10;99.90;;;;;;5089558;28;20433;-68
2022/06/21 03:58:22;;;;;;;14.07;6.15;;;14.20;99.90;;;;;;5092374;28;20028;-68
2022/06/21 04:00:55;;;;;;;;;;;14.30;99.90;;;;;;5092919;28;20472;-68
2022/06/21 04:03:40;;;;;;;20.23;5.43;;;14.40;99.90;;;;;;5089634;28;20403;-68
2022/06/21 04:06:23;;;;;;;18.52;5.55;;;14.40;99.90;;;;;;5106925;28;20395;-68
2022/06/21 04:09:01;;;;;;;15.10;6.53;;;14.30;99.90;;;;;;5092352;28;20098;-69
2022/06/21 04:12:01;;;;;;;17.92;6.05;;;14.30;99.90;;;;;;5096097;28;20040;-68
2022/06/21 04:14:34;;;;;;;13.57;5.90;;;14.20;99.90;;;;;;5096166;28;20134;-68
2022/06/21 04:17:07;;;;;;;16.75;6.88;;;14.30;99.90;;;;;;5095845;28;20032;-68
2022/06/21 04:20:01;;;;;;;19.20;6.10;;;14.30;99.90;;;;;;5082243;28;20040;-68
2022/06/21 04:22:29;;;;;;;14.23;6.38;;;14.60;99.90;;;;;;5066845;28;20051;-68
2022/06/21 04:25:02;;;;;;;23.00;8.02;;;14.70;99.90;;;;;;5096084;28;20032;-69
2022/06/21 04:27:55;;;;;;;16.52;7.10;;;14.40;99.90;;;;;;5095944;28;20032;-68
2022/06/21 04:30:31;;;;;;;22.95;7.35;;;14.60;99.90;;;;;;5095838;28;20059;-68
2022/06/21 04:33:08;;;;;;;19.77;6.57;;;14.60;99.90;;;;;;5095572;28;20039;-68
2022/06/21 04:35:43;;;;;;;21.08;6.97;;;14.30;99.90;;;;;;5095844;28;20047;-68
2022/06/21 04:38:22;;;;;;;19.17;7.22;;;14.40;99.90;;;;;;5095242;28;20040;-68
2022/06/21 04:40:57;;;;;;;17.70;6.63;;;14.30;99.90;;;;;;5095750;28;20032;-69
2022/06/21 04:43:29;;;;;;;18.88;6.07;;;14.20;99.90;;;;;;5095823;28;20020;-68
2022/06/21 04:46:08;;;;;;;17.25;6.53;;;14.30;99.90;;;;;;5066462;28;20036;-68
2022/06/21 04:48:39;;;;;;;16.52;6.60;;;14.40;99.90;;;;;;5089540;28;20028;-68
2022/06/21 04:51:16;;;;;;;22.90;5.97;;;14.40;99.90;;;;;;5095489;28;20024;-68
2022/06/21 04:54:00;;;;;;;18.45;5.80;;;14.40;99.90;;;;;;5095344;28;20088;-69
2022/06/21 04:56:44;;;;;;;15.73;5.95;;;14.60;99.90;;;;;;5095620;28;20396;-68
2022/06/21 04:59:20;;;;;;;14.27;5.25;;;14.70;99.90;;;;;;5095015;28;20129;-68
2022/06/21 05:01:46;;;;;;;14.15;6.13;;;14.60;99.90;;;;;;5076973;28;20032;-68
2022/06/21 05:04:19;;;;;;;17.08;5.97;;;14.50;99.90;;;;;;5088497;28;20089;-68
2022/06/21 05:06:45;;;;;;;15.73;6.40;;;14.60;99.90;;;;;;5095382;28;20499;-68
2022/06/21 05:09:17;;;;;;;12.70;5.75;;;14.90;99.90;;;;;;5094824;28;20035;-68
2022/06/21 05:11:43;;;;;;;;;;;15.00;99.90;;;;;;5095490;28;20532;-68
2022/06/21 05:14:24;;;;;;;13.68;5.47;;;15.20;99.90;;;;;;5094861;28;19961;-67
2022/06/21 05:16:50;;;;;;;13.95;5.22;;;15.20;99.90;;;;;;5085221;28;20111;-68
2022/06/21 05:19:22;;;;;;;13.25;5.60;;;15.00;99.90;;;;;;5083416;28;20028;-69
2022/06/21 05:21:54;;;;;;;16.40;5.50;;;15.20;99.90;;;;;;5092464;28;20028;-68
2022/06/21 05:24:22;;;;;;;11.70;5.57;;;15.30;99.90;;;;;;5094734;28;20039;-68
2022/06/21 05:27:17;;;;;;;18.15;5.70;;;15.50;99.90;;;;;;5076631;28;20081;-68
2022/06/21 05:30:03;;;;;;;17.70;5.97;;;15.70;99.90;;;;;;5094285;28;20477;-68
2022/06/21 05:32:52;;;;;;;19.05;5.45;;;15.70;99.90;;;;;;5070622;28;20024;-68
2022/06/21 05:35:22;;;;;;;13.60;4.57;;;15.60;99.90;;;;;;5093875;28;20040;-68
2022/06/21 05:38:00;;;;;;;14.85;5.40;;;15.60;99.90;;;;;;5094334;28;20021;-68
2022/06/21 05:40:56;;;;;;;13.80;5.03;;;15.60;99.90;;;;;;5094288;28;20028;-68
2022/06/21 05:43:47;;;;;;;16.27;5.57;;;15.60;99.90;;;;;;5087768;28;20499;-68
2022/06/21 05:46:21;;;;;;;18.40;4.40;;;15.80;99.90;;;;;;5067773;28;20028;-68
2022/06/21 05:48:47;;;;;;;8.68;4.70;;;16.00;99.90;;;;;;5090216;28;20090;-68
2022/06/21 05:51:19;;;;;;;13.27;4.70;;;16.00;99.90;;;;;;5067519;28;20037;-68
2022/06/21 05:54:08;;;;;;;16.33;5.00;;;16.00;99.90;;;;;;5079431;28;20032;-67
2022/06/21 05:56:36;;;;;;;12.80;4.60;;;16.30;99.90;;;;;;5075605;28;20047;-68
2022/06/21 05:59:20;;;;;;;11.52;4.50;;;16.40;99.90;;;;;;5077238;28;20033;-67
2022/06/21 06:02:14;;;;;;;15.20;4.30;;;16.40;99.90;;;;;;5085908;28;20027;-67
2022/06/21 06:04:47;;;;;;;19.05;4.72;;;16.40;99.90;;;;;;5074349;28;20028;-68
2022/06/21 06:07:26;;;;;;;15.45;4.95;;;16.30;99.90;;;;;;5077380;28;20024;-68
2022/06/21 06:09:56;;;;;;;16.67;4.72;;;16.50;99.90;;;;;;5046513;28;20032;-68
2022/06/21 06:12:32;;;;;;;21.27;5.78;;;16.50;99.90;;;;;;5081588;28;20461;-67
2022/06/21 06:15:11;;;;;;;19.58;4.80;;;16.60;99.90;;;;;;5079741;28;20024;-67
2022/06/21 06:17:59;;;;;;;10.52;4.07;;;16.90;99.90;;;;;;5075101;28;20475;-69
2022/06/21 06:20:28;;;;;;;12.05;4.68;;;16.90;99.90;;;;;;5077308;28;20044;-67
2022/06/21 06:23:02;;;;;;;15.45;4.53;;;16.90;99.90;;;;;;5093168;28;20032;-68
2022/06/21 06:25:32;;;;;;;12.02;4.88;;;16.80;99.90;;;;;;5065520;28;20020;-68
2022/06/21 06:28:06;;;;;;;17.92;5.55;;;17.00;99.90;;;;;;5092542;28;20043;-69
2022/06/21 06:31:00;;;;;;;16.55;4.45;;;17.00;99.90;;;;;;5092733;28;20054;-67
2022/06/21 06:33:33;;;;;;;12.75;4.60;;;17.10;99.90;;;;;;5075431;28;20043;-68
2022/06/21 06:36:04;;;;;;;15.32;4.30;;;17.30;99.90;;;;;;5092670;28;20013;-67
2022/06/21 06:38:30;;;;;;;16.33;4.20;;;17.10;99.90;;;;;;5092411;28;20032;-69
2022/06/21 06:41:16;;;;;;;17.63;4.80;;;17.00;99.90;;;;;;5092613;28;20036;-68
2022/06/21 06:43:51;;;;;;;16.73;4.82;;;17.00;99.90;;;;;;5092384;28;20020;-67
2022/06/21 06:46:28;;;;;;;17.63;4.78;;;16.90;99.90;;;;;;5087764;28;20492;-67
2022/06/21 06:49:19;;;;;;;16.55;4.95;;;17.00;99.90;;;;;;5089236;28;20058;-67
2022/06/21 06:51:48;;;;;;;11.90;4.57;;;17.20;99.90;;;;;;5076032;28;20036;-67
2022/06/21 06:54:52;;;;;;;17.42;4.80;;;17.20;99.90;;;;;;5074090;28;20097;-67
2022/06/21 06:57:45;;;;;;;13.65;4.78;;;17.30;99.90;;;;;;5042102;28;20047;-67
2022/06/21 07:00:20;;;;;;;13.85;4.30;;;17.40;99.90;;;;;;5080304;28;20036;-67
2022/06/21 07:02:58;;;;;;;21.73;5.57;;;17.80;99.90;;;;;;5077968;28;20021;-67
2022/06/21 07:05:55;;;;;;;14.98;5.13;;;17.90;99.90;;;;;;5072181;28;20032;-68
2022/06/21 07:08:40;;;;;;;18.10;5.82;;;18.20;99.90;;;;;;5074840;28;20078;-68
2022/06/21 07:11:27;;;;;;;14.38;5.90;;;18.00;99.90;;;;;;5071827;28;20389;-68
2022/06/21 07:13:53;;;;;;;23.55;6.65;;;17.70;99.90;;;;;;5079785;28;20016;-67
2022/06/21 07:16:23;;;;;;;13.48;5.70;;;17.80;99.90;;;;;;5070657;28;20024;-68
2022/06/21 07:18:56;;;;;;;18.13;5.63;;;17.80;99.90;;;;;;5071225;28;20032;-69
2022/06/21 07:21:23;;;;;;;18.00;6.20;;;17.70;99.90;;;;;;5086406;28;20417;-69
2022/06/21 07:23:52;;;;;;;12.73;6.30;;;17.60;99.90;;;;;;5091776;28;20099;-67
2022/06/21 07:26:28;;;;;;;18.15;6.20;;;17.90;99.90;;;;;;5092432;28;20085;-66
2022/06/21 07:29:13;;;;;;;14.80;6.25;;;18.20;99.90;;;;;;5092869;28;20031;-69
2022/06/21 07:32:14;;;;;;;16.55;5.72;;;18.80;99.90;;;;;;5092568;28;20113;-68
2022/06/21 07:34:50;;;;;;;13.60;5.90;;;19.10;99.90;;;;;;5072409;28;20091;-67
2022/06/21 07:37:41;;;;;;;11.30;5.10;;;19.20;99.90;;;;;;5065049;28;20647;-67
2022/06/21 07:40:25;;;;;;;14.73;5.45;;;18.90;99.90;;;;;;5077379;28;20048;-69
2022/06/21 07:43:29;;;;;;;15.45;5.38;;;18.80;99.90;;;;;;5074142;28;20489;-68
2022/06/21 07:45:59;;;;;;;11.38;5.53;;;18.90;99.90;;;;;;5076233;28;20041;-68
2022/06/21 07:48:43;;;;;;;10.48;4.82;;;18.90;99.90;;;;;;5084033;28;20073;-68
2022/06/21 07:51:09;;;;;;;15.35;5.47;;;19.10;99.90;;;;;;5082680;28;20031;-68
2022/06/21 07:53:52;;;;;;;10.45;4.60;;;19.10;99.90;;;;;;5080103;28;20016;-69
2022/06/21 07:56:42;;;;;;;12.30;5.20;;;19.00;99.90;;;;;;5077485;28;20036;-68
2022/06/21 07:59:36;;;;;;;12.27;5.22;;;19.00;99.90;;;;;;5083720;28;20132;-67
2022/06/21 08:08:15;;;;;;;14.93;5.75;;;19.20;99.90;;;;;;5076475;28;20111;-75
2022/06/21 08:10:47;;;;;;;14.85;5.65;;;19.40;99.90;;;;;;5074354;28;20417;-76
2022/06/21 08:13:14;;;;;;;11.30;5.15;;;20.10;99.90;;;;;;5074818;28;20025;-68
2022/06/21 08:15:47;;;;;;;12.18;5.28;;;19.90;99.90;;;;;;5074938;28;20050;-69
2022/06/21 08:18:25;;;;;;;16.30;4.85;;;20.10;99.90;;;;;;5049495;28;20087;-68
2022/06/21 08:20:59;;;;;;;17.35;5.25;;;20.30;99.90;;;;;;5084967;28;20476;-69
2022/06/21 08:23:52;;;;;;;12.98;4.30;;;20.80;99.90;;;;;;5073810;28;20024;-68
2022/06/21 08:26:30;;;;;;;11.20;4.20;;;20.60;99.20;;;;;;5075962;28;20025;-68
2022/06/21 08:29:06;;;;;;;10.90;4.05;;;20.50;99.30;;;;;;5076231;28;20070;-68
2022/06/21 08:31:36;;;;;;;7.95;4.78;;;20.10;99.90;;;;;;5078935;28;20024;-67
2022/06/21 08:34:08;;;;;;;15.15;5.47;;;19.80;99.90;;;;;;5076415;28;20030;-68
2022/06/21 08:37:08;;;;;;;16.30;5.60;;;20.50;99.90;;;;;;5081537;28;20085;-68
2022/06/21 08:39:49;;;;;;;18.53;5.13;;;21.20;99.30;;;;;;5078932;28;20040;-68
2022/06/21 08:42:42;;;;;;;12.48;4.50;;;21.30;98.90;;;;;;5095644;28;20064;-68
2022/06/21 08:45:48;;;;;;;14.50;4.93;;;21.30;98.50;;;;;;5075316;28;20028;-67
2022/06/21 08:48:32;;;;;;;12.90;4.15;;;21.60;98.40;;;;;;5054815;28;20783;-67
2022/06/21 08:51:00;;;;;;;11.98;4.50;;;21.70;98.10;;;;;;5079788;28;20028;-68
2022/06/21 08:53:43;;;;;;;9.15;4.60;;;21.90;98.60;;;;;;5081040;28;20029;-68
2022/06/21 08:56:17;;;;;;;20.60;4.97;;;21.90;97.40;;;;;;5076260;28;20134;-68
2022/06/21 08:58:59;;;;;;;18.75;4.32;;;21.70;98.30;;;;;;5073632;28;20028;-69
2022/06/21 09:01:41;;;;;;;10.05;3.97;;;22.10;96.30;;;;;;5071906;28;20229;-68
2022/06/21 09:04:48;;;;;;;12.05;3.90;;;21.80;96.50;;;;;;5069043;28;20162;-68
2022/06/21 09:07:47;;;;;;;9.73;3.47;;;21.90;95.10;;;;;;5056353;28;20047;-69
2022/06/21 09:10:34;;;;;;;7.35;3.47;;;21.70;95.30;;;;;;5073677;28;20040;-68
2022/06/21 09:13:20;;;;;;;7.65;3.42;;;21.50;95.30;;;;;;5074753;28;20067;-69
2022/06/21 09:15:56;;;;;;;13.23;4.25;;;21.30;95.80;;;;;;5074527;28;20086;-68
2022/06/21 09:18:47;;;;;;;9.57;3.55;;;21.30;96.60;;;;;;5074395;28;20042;-67
2022/06/21 09:21:19;;;;;;;10.02;3.15;;;21.40;96.30;;;;;;5087954;28;20131;-68
2022/06/21 09:23:51;;;;;;;;;;;20.80;97.10;;;;;;5067228;28;20474;-68
2022/06/21 09:26:37;;;;;;;6.78;3.40;;;21.50;96.70;;;;;;5095178;28;19961;-68
2022/06/21 09:29:28;;;;;;;18.17;3.65;;;22.00;96.30;;;;;;5069669;28;20189;-68
2022/06/21 09:32:35;;;;;;;10.40;3.15;;;22.50;94.60;;;;;;5094618;28;20396;-68
2022/06/21 09:35:19;;;;;;;10.23;2.75;;;22.00;95.00;;;;;;5057328;28;20032;-68
2022/06/21 09:38:06;;;;;;;14.18;3.85;;;21.70;95.40;;;;;;5094160;28;20110;-68
2022/06/21 09:40:36;;;;;;;7.90;3.45;;;21.10;95.80;;;;;;5094392;28;20040;-68
2022/06/21 09:43:05;;;;;;;12.55;3.10;;;20.90;95.90;;;;;;5094464;28;20465;-68
2022/06/21 09:45:58;;;;;;;16.65;3.53;;;20.90;97.00;;;;;;5094325;28;20032;-68
2022/06/21 09:48:48;;;;;;;7.10;3.70;;;20.70;97.20;;;;;;5088523;28;20469;-68
2022/06/21 09:51:50;;;;;;;8.25;3.00;;;21.10;97.40;;;;;;5073895;28;20495;-69
2022/06/21 09:54:33;;;;;;;13.43;3.70;;;20.90;96.50;;;;;;5021467;28;20037;-68
2022/06/21 09:57:23;;;;;;;8.35;3.80;;;20.70;97.70;;;;;;5079655;28;20023;-68
2022/06/21 09:59:52;;;;;;;14.73;3.47;;;21.00;97.00;;;;;;5074350;28;20033;-68
2022/06/21 10:02:33;;;;;;;13.30;3.53;;;21.20;97.00;;;;;;5075044;28;20470;-68
2022/06/21 10:05:21;;;;;;;9.27;3.80;;;21.00;97.10;;;;;;5083117;28;20118;-68
2022/06/21 10:08:34;;;;;;;11.38;3.38;;;20.80;96.20;;;;;;5076738;28;20059;-67
2022/06/21 10:11:22;;;;;;;19.05;3.50;;;20.80;96.60;;;;;;5026674;28;20093;-67
2022/06/21 10:14:15;;;;;;;8.27;3.45;;;21.00;97.60;;;;;;5073720;28;20060;-68
2022/06/21 10:17:00;;;;;;;11.52;3.30;;;21.00;97.70;;;;;;5086221;28;20101;-68
2022/06/21 10:19:30;;;;;;;14.93;3.55;;;21.40;97.20;;;;;;5077584;28;20032;-68
2022/06/21 10:22:10;;;;;;;12.50;3.47;;;21.40;96.30;;;;;;5092134;28;20533;-68
2022/06/21 10:24:39;;;;;;;22.08;4.18;;;21.40;97.30;;;;;;5093058;28;20027;-69
2022/06/21 10:27:29;;;;;;;11.43;3.28;;;21.40;95.70;;;;;;5074810;28;20016;-67
2022/06/21 10:30:30;;;;;;;7.93;2.95;;;21.50;96.80;;;;;;5092737;28;20028;-67
2022/06/21 10:33:16;;;;;;;7.00;2.90;;;22.00;96.00;;;;;;5052606;28;20076;-68
2022/06/21 10:36:13;;;;;;;16.83;3.63;;;22.20;95.10;;;;;;5076127;28;20039;-67
2022/06/21 10:38:44;;;;;;;7.13;3.25;;;22.40;95.40;;;;;;5091531;28;20028;-70
2022/06/21 10:41:15;;;;;;;;;;;22.60;94.80;;;;;;5073005;28;20476;-69
2022/06/21 10:43:52;;;;;;;11.75;3.10;;;23.10;94.60;;;;;;5076541;28;19915;-68
2022/06/21 10:46:35;;;;;;;15.00;4.15;;;22.70;94.90;;;;;;5082538;28;20119;-69
2022/06/21 10:49:24;;;;;;;11.18;3.58;;;22.60;95.60;;;;;;5075918;28;20112;-68
2022/06/21 10:52:20;;;;;;;9.27;3.42;;;22.50;94.40;;;;;;5065780;28;20055;-67
2022/06/21 10:54:53;;;;;;;6.13;3.15;;;22.60;95.10;;;;;;5076941;28;20035;-67
2022/06/21 10:57:34;;;;;;;8.13;3.28;;;22.70;94.70;;;;;;5075685;28;20088;-68
2022/06/21 11:03:10;;;;;;;11.55;3.83;;;23.70;93.90;;;;;;5072459;28;20492;-70
2022/06/21 11:06:20;;;;;;;10.27;3.33;;;24.20;92.50;;;;;;5066437;28;20070;-69
2022/06/21 11:08:52;;;;;;;13.35;3.78;;;24.00;92.40;;;;;;5047608;28;20044;-69
2022/06/21 11:11:24;;;;;;;8.15;3.28;;;24.10;91.60;;;;;;5072455;28;20532;-70
2022/06/21 11:13:56;;;;;;;10.43;3.10;;;23.80;91.70;;;;;;5072769;28;20097;-68
2022/06/21 11:16:49;;;;;;;7.47;2.85;;;23.80;92.00;;;;;;5072356;28;20059;-68
2022/06/21 11:19:39;;;;;;;7.57;3.28;;;23.30;91.50;;;;;;5071611;28;20047;-70
2022/06/21 11:22:05;;;;;;;8.32;3.80;;;23.40;92.20;;;;;;5079020;28;20020;-69
2022/06/21 11:24:52;;;;;;;14.02;3.70;;;23.00;92.30;;;;;;5093059;28;20106;-69
2022/06/21 11:27:36;;;;;;;7.32;2.72;;;22.70;92.80;;;;;;5092568;28;20024;-69
2022/06/21 11:30:25;;;;;;;8.18;3.15;;;22.90;92.70;;;;;;5092459;28;20027;-70
2022/06/21 11:32:51;;;;;;;9.63;3.75;;;23.10;92.30;;;;;;5074205;28;20047;-69
2022/06/21 11:35:25;;;;;;;10.95;3.38;;;22.70;92.80;;;;;;5092729;28;20016;-69
2022/06/21 11:37:51;;;;;;;5.75;3.03;;;22.50;92.80;;;;;;5092290;28;20040;-69
2022/06/21 11:40:44;;;;;;;7.32;3.75;;;22.60;93.50;;;;;;5092433;28;20046;-69
2022/06/21 11:43:30;;;;;;;8.48;3.53;;;22.50;93.70;;;;;;5092708;28;20385;-69
2022/06/21 11:46:16;;;;;;;5.43;3.63;;;21.70;94.20;;;;;;5079624;28;20074;-70
2022/06/21 11:49:17;;;;;;;12.38;3.65;;;21.60;94.00;;;;;;5062841;28;20070;-69
2022/06/21 11:51:58;;;;;;;10.07;3.50;;;21.50;94.60;;;;;;5037657;28;20095;-69
2022/06/21 11:54:33;;;;;;;10.52;3.33;;;21.60;94.10;;;;;;5065604;28;20055;-69
2022/06/21 11:57:23;;;;;;;12.00;2.90;;;21.40;94.80;;;;;;5092566;28;20036;-69
2022/06/21 12:00:07;;;;;;;12.50;3.75;;;21.30;94.80;;;;;;5070385;28;20047;-70
2022/06/21 12:02:52;;;;;;;14.13;3.40;;;21.60;94.30;;;;;;5092191;28;20017;-69
2022/06/21 12:05:32;;;;;;;18.60;3.88;;;21.60;94.20;;;;;;5085983;28;20417;-68
2022/06/21 12:08:17;;;;;;;6.95;3.33;;;21.50;95.40;;;;;;5056799;28;20025;-69
2022/06/21 12:10:50;;;;;;;17.80;3.80;;;21.60;95.60;;;;;;5086889;28;20527;-69
2022/06/21 12:13:39;;;;;;;10.73;3.65;;;21.80;95.50;;;;;;5092260;28;20384;-69
2022/06/21 12:16:26;;;;;;;8.70;3.42;;;21.70;95.50;;;;;;5063218;28;20032;-69
2022/06/21 12:19:24;;;;;;;8.38;3.15;;;21.90;95.60;;;;;;5084000;28;20115;-68
2022/06/21 12:22:06;;;;;;;8.52;3.20;;;22.30;94.50;;;;;;5090502;28;20024;-69
2022/06/21 12:24:33;;;;;;;14.93;3.22;;;22.40;94.60;;;;;;5092305;28;20536;-69
2022/06/21 12:26:59;;;;;;;11.20;3.40;;;21.90;94.40;;;;;;5074296;28;20456;-69
2022/06/21 12:29:28;;;;;;;8.30;3.47;;;21.70;94.80;;;;;;5092227;28;20027;-68
2022/06/21 12:32:00;;;;;;;16.60;3.63;;;21.70;95.20;;;;;;5095488;28;20023;-69
2022/06/21 12:34:30;;;;;;;13.07;3.70;;;22.00;95.10;;;;;;5095869;28;20042;-68
2022/06/21 12:37:08;;;;;;;10.65;3.53;;;22.00;95.30;;;;;;5095830;28;20111;-69
2022/06/21 12:39:40;;;;;;;9.18;3.63;;;22.30;94.00;;;;;;5095762;28;20542;-68
2022/06/21 12:42:33;;;;;;;14.02;3.67;;;22.60;93.80;;;;;;5095853;28;20051;-68
2022/06/21 12:45:21;;;;;;;6.63;3.60;;;22.40;94.10;;;;;;5095574;28;20115;-69
2022/06/21 12:48:03;;;;;;;11.52;4.35;;;22.50;94.30;;;;;;5054600;28;20044;-70
2022/06/21 12:51:11;;;;;;;9.88;4.03;;;22.50;93.90;;;;;;5091577;28;20447;-69
2022/06/21 12:53:51;;;;;;;11.55;4.43;;;23.20;93.50;;;;;;5095692;28;20039;-68
2022/06/21 12:56:31;;;;;;;20.75;4.05;;;23.20;93.30;;;;;;5071030;28;20036;-68
2022/06/21 12:59:41;;;;;;;15.68;3.83;;;23.30;93.90;;;;;;5086189;28;20370;-69
2022/06/21 13:02:31;;;;;;;6.20;3.97;;;22.50;93.80;;;;;;5079546;28;20490;-70
2022/06/21 13:05:36;;;;;;;9.18;3.40;;;22.30;94.20;;;;;;5079994;28;20415;-69
2022/06/21 13:08:36;;;;;;;12.25;4.03;;;22.50;94.40;;;;;;5094992;28;20456;-69
2022/06/21 13:11:03;;;;;;;10.60;4.38;;;22.70;93.90;;;;;;5075529;28;20054;-69
2022/06/21 13:13:38;;;;;;;13.70;5.90;;;22.50;93.90;;;;;;5094838;28;20377;-69
2022/06/21 13:16:10;;;;;;;8.80;4.30;;;22.70;94.10;;;;;;5095252;28;20052;-70
2022/06/21 13:18:55;;;;;;;11.10;4.28;;;22.70;94.10;;;;;;5089155;28;20055;-69
2022/06/21 13:21:21;;;;;;;10.52;3.55;;;22.30;93.40;;;;;;5089142;28;20043;-70
2022/06/21 13:24:04;;;;;;;8.95;3.92;;;22.30;93.90;;;;;;5095080;28;20024;-69
2022/06/21 13:26:53;;;;;;;13.75;3.60;;;22.20;93.40;;;;;;5094801;28;20468;-69
2022/06/21 13:29:36;;;;;;;6.70;3.60;;;22.20;94.30;;;;;;5094663;28;20035;-69
2022/06/21 13:32:07;;;;;;;8.88;3.38;;;22.30;94.00;;;;;;5094701;28;20024;-68
2022/06/21 13:34:36;;;;;;;10.82;4.40;;;22.40;93.80;;;;;;5076591;28;20024;-70
2022/06/21 13:37:17;;;;;;;13.13;3.58;;;22.10;93.20;;;;;;5094848;28;20034;-69
2022/06/21 13:40:04;;;;;;;9.80;3.42;;;22.40;93.70;;;;;;5094629;28;20139;-69
2022/06/21 13:42:58;;;;;;;18.00;3.75;;;22.60;93.70;;;;;;5093785;28;20032;-68
2022/06/21 13:45:49;;;;;;;9.13;3.90;;;22.50;93.90;;;;;;5077355;28;20097;-68
2022/06/21 13:48:39;;;;;;;11.45;3.83;;;22.60;93.60;;;;;;5066526;28;20477;-68
2022/06/21 13:51:15;;;;;;;17.48;4.45;;;22.70;93.50;;;;;;5056306;28;20021;-69
2022/06/21 13:53:53;;;;;;;11.85;3.65;;;22.60;92.70;;;;;;5056109;28;20500;-69
2022/06/21 13:56:39;;;;;;;9.60;3.28;;;22.60;93.90;;;;;;5074150;28;20043;-68